Accueil
METAR-TAF:

METAR-TAF

Aéroports :

Base aérienne 116 Luxeuil-Saint Sauveur

Luxeuil-les-Bains, France

latitude: 47-47N, longitude: 006-21E, altitude: 278 m

Observation

Le bulletin a été fait il y a 26 minutes, à 16:00 UTC
Vent 3 kt de direction variable
Température 0°C
Humidité 93%
Pression 1019 hPa
Visibilité: 4300 m
Ciel couvert à une hauteur de 800 ft
brume

METAR: LFSX 211600Z AUTO VRB03KT 4300 BR OVC008 M00/M01 Q1019

Heure: 17:26 (16:26 UTC)

Prévision

Le bulletin a été fait il y a 2 heures et 26 minutes, à 14:00 UTC
Prévision valable du 21 à 15 UTC au 22 à 15 UTC
Vent 4 kt de est/sud-est
Visibilité: 3500 m
Ciel couvert à une hauteur de 700 ft
brume
Evoluant progressivement
du 22 à 09 UTC au 22 à 12 UTC
Visibilité 10 km ou plus
Nuages épars à une hauteur de 2300 ft

TAF: LFSX 211400Z 2115/2215 12004KT 3500 BR OVC007 BECMG 2209/2212 9999 SCT023

Observations et prévisions météorologiques de plus de 4000 aéroports (messages METAR et TAF).

Les stations disponibles sont représentées par des disques jaunes et rouges sur la carte.

Passer la souris dessus pour voir le nom de la station.

Cliquer dessus pour voir les observations et prévisions météorologiques.

Pour changer de carte: cliquez sur les boutons verts avec une croix noire pour zoomer, sur le bouton vert avec un tiret pour effectuer un zoom arrière, ou sur les flèches vertes pour les cartes adjacentes.


METAR-TAF: